Time;durP1;ratioP1;P1;durP2;ratioP2;P2;SDS_P1;SDS_P2;PMS_P1;PMS_P2;Temp;Humidity;BMP_temperature;BMP_pressure;BME280_temperature;BME280_humidity;BME280_pressure;Samples;Min_cycle;Max_cycle;Signal;HPM_P1;HPM_P2
2022/03/26 00:00:57;;;;;;;15.57;12.25;;;10.20;49.10;;;;;;5051697;28;20222;-81
2022/03/26 00:03:26;;;;;;;30.23;12.00;;;10.20;49.30;;;;;;5051705;28;20265;-80
2022/03/26 00:05:54;;;;;;;12.20;11.02;;;10.20;49.50;;;;;;5053745;28;20213;-80
2022/03/26 00:08:22;;;;;;;11.75;10.55;;;10.20;49.40;;;;;;5051399;28;20270;-80
2022/03/26 00:10:51;;;;;;;19.33;12.30;;;10.10;49.70;;;;;;5051379;28;20240;-81
2022/03/26 00:13:20;;;;;;;14.00;10.75;;;10.10;50.10;;;;;;5051790;28;20241;-80
2022/03/26 00:15:50;;;;;;;20.17;12.43;;;10.10;50.40;;;;;;5055246;28;20295;-80
2022/03/26 00:18:18;;;;;;;17.83;13.02;;;10.10;49.80;;;;;;5056189;28;20202;-81
2022/03/26 00:20:47;;;;;;;13.05;10.63;;;10.00;49.60;;;;;;5055485;28;20206;-80
2022/03/26 00:23:15;;;;;;;23.02;12.77;;;10.00;49.60;;;;;;5055358;28;20237;-80
2022/03/26 00:25:43;;;;;;;13.15;11.63;;;10.00;49.60;;;;;;5055429;28;20273;-80
2022/03/26 00:28:12;;;;;;;12.48;11.18;;;10.00;50.10;;;;;;5055526;28;20233;-81
2022/03/26 00:30:40;;;;;;;26.13;12.85;;;9.90;50.90;;;;;;5054981;28;20228;-80
2022/03/26 00:33:10;;;;;;;12.20;10.73;;;9.90;50.80;;;;;;5055063;28;20257;-80
2022/03/26 00:35:39;;;;;;;16.15;11.98;;;9.80;51.20;;;;;;5054985;28;20236;-80
2022/03/26 00:38:07;;;;;;;18.73;12.25;;;9.80;51.20;;;;;;5055476;28;20293;-80
2022/03/26 00:40:36;;;;;;;19.10;12.18;;;9.70;52.30;;;;;;5055138;28;20263;-81
2022/03/26 00:43:05;;;;;;;21.20;12.55;;;9.70;51.70;;;;;;5055929;28;20233;-81
2022/03/26 00:45:34;;;;;;;19.65;12.20;;;9.60;52.50;;;;;;5055734;28;20236;-80
2022/03/26 00:48:04;;;;;;;15.65;11.82;;;9.50;53.00;;;;;;5055248;28;20210;-81
2022/03/26 00:50:35;;;;;;;17.55;12.07;;;9.40;53.10;;;;;;5054915;28;20289;-81
2022/03/26 00:53:03;;;;;;;15.65;11.85;;;9.40;53.10;;;;;;5054988;28;20341;-80
2022/03/26 00:55:31;;;;;;;14.57;10.77;;;9.40;52.80;;;;;;5055053;28;20291;-80
2022/03/26 00:57:59;;;;;;;13.98;11.20;;;9.40;53.40;;;;;;5054967;28;20240;-81
2022/03/26 01:00:28;;;;;;;14.65;11.82;;;9.30;53.60;;;;;;5054857;28;20301;-81
2022/03/26 01:02:57;;;;;;;15.05;10.90;;;9.20;53.70;;;;;;5055057;28;20236;-81
2022/03/26 01:05:26;;;;;;;20.17;12.85;;;9.20;53.60;;;;;;5054943;28;20210;-80
2022/03/26 01:07:55;;;;;;;13.45;12.05;;;9.20;53.70;;;;;;5054855;28;20205;-81
2022/03/26 01:10:24;;;;;;;16.08;11.38;;;9.20;53.20;;;;;;5054803;28;20241;-80
2022/03/26 01:12:52;;;;;;;15.35;11.27;;;9.20;53.90;;;;;;5054692;28;20283;-81
2022/03/26 01:15:21;;;;;;;14.15;12.23;;;9.20;53.70;;;;;;5054669;28;20241;-80
2022/03/26 01:17:50;;;;;;;15.95;12.05;;;9.10;53.30;;;;;;5054776;28;20233;-80
2022/03/26 01:20:18;;;;;;;17.33;12.25;;;9.20;53.90;;;;;;5054626;28;20278;-81
2022/03/26 01:22:47;;;;;;;19.95;12.48;;;9.10;54.40;;;;;;5054665;28;20253;-80
2022/03/26 01:25:16;;;;;;;16.25;11.80;;;9.10;54.70;;;;;;5054875;28;20206;-80
2022/03/26 01:27:44;;;;;;;15.65;13.20;;;9.00;54.90;;;;;;5054777;28;20244;-81
2022/03/26 01:30:13;;;;;;;16.75;12.45;;;9.00;55.50;;;;;;5054663;28;20288;-80
2022/03/26 01:32:43;;;;;;;15.07;11.05;;;9.00;54.70;;;;;;5054625;28;20315;-80
2022/03/26 01:35:12;;;;;;;14.63;12.70;;;9.00;55.90;;;;;;5054396;28;20236;-80
2022/03/26 01:37:40;;;;;;;19.98;11.65;;;9.00;55.20;;;;;;5054472;28;20234;-81
2022/03/26 01:40:09;;;;;;;21.63;12.82;;;8.90;55.60;;;;;;5054707;28;20205;-81
2022/03/26 01:42:39;;;;;;;15.18;10.77;;;8.90;55.30;;;;;;5054233;28;20265;-80
2022/03/26 01:45:11;;;;;;;15.48;11.18;;;8.90;54.50;;;;;;5054638;28;20288;-81
2022/03/26 01:47:40;;;;;;;18.88;12.52;;;8.90;54.50;;;;;;5054983;28;20244;-80
2022/03/26 01:50:09;;;;;;;15.73;12.75;;;8.90;54.30;;;;;;5054566;28;20206;-80
2022/03/26 01:52:37;;;;;;;16.45;11.98;;;8.90;54.10;;;;;;5054250;28;20257;-80
2022/03/26 01:55:07;;;;;;;15.25;11.23;;;9.00;53.90;;;;;;5054122;28;20317;-80
2022/03/26 01:57:35;;;;;;;13.45;10.38;;;9.00;53.60;;;;;;5054374;28;20209;-80
2022/03/26 02:00:08;;;;;;;14.48;12.82;;;8.90;53.40;;;;;;5054157;28;20209;-80
2022/03/26 02:02:37;;;;;;;18.23;12.25;;;8.90;53.40;;;;;;5054608;28;20308;-80
2022/03/26 02:05:06;;;;;;;13.07;10.73;;;8.90;53.70;;;;;;5053954;28;20284;-80
2022/03/26 02:07:35;;;;;;;19.67;11.07;;;8.80;53.60;;;;;;5053969;28;20197;-80
2022/03/26 02:10:04;;;;;;;15.10;11.65;;;8.90;54.30;;;;;;5053994;28;20240;-81
2022/03/26 02:12:32;;;;;;;13.80;11.93;;;8.80;54.30;;;;;;5053672;28;20325;-81
2022/03/26 02:15:01;;;;;;;16.33;12.02;;;8.70;55.10;;;;;;5053830;28;20308;-80
2022/03/26 02:17:30;;;;;;;16.88;12.52;;;8.70;54.60;;;;;;5054350;28;20247;-81
2022/03/26 02:20:01;;;;;;;15.23;11.77;;;8.70;54.90;;;;;;5053866;28;20236;-81
2022/03/26 02:22:31;;;;;;;16.45;12.30;;;8.70;55.70;;;;;;5053320;28;20293;-80
2022/03/26 02:24:59;;;;;;;14.25;11.05;;;8.60;55.20;;;;;;5053421;28;20258;-81
2022/03/26 02:27:30;;;;;;;15.40;11.07;;;8.60;55.30;;;;;;5054163;28;20251;-81
2022/03/26 02:29:59;;;;;;;22.25;12.48;;;8.50;55.50;;;;;;5053575;28;20273;-81
2022/03/26 02:32:29;;;;;;;20.40;12.55;;;8.50;55.30;;;;;;5053444;28;20266;-81
2022/03/26 02:34:58;;;;;;;13.90;10.90;;;8.50;54.90;;;;;;5053790;28;20469;-81
2022/03/26 02:37:32;;;;;;;17.85;12.02;;;8.60;54.80;;;;;;5052933;28;20210;-81
2022/03/26 02:40:04;;;;;;;18.27;12.25;;;8.60;54.60;;;;;;5053343;28;20233;-81
2022/03/26 02:42:33;;;;;;;13.10;10.88;;;8.60;54.50;;;;;;5053667;28;20228;-81
2022/03/26 02:45:02;;;;;;;16.25;11.93;;;8.60;54.40;;;;;;5053014;28;20262;-80
2022/03/26 02:47:30;;;;;;;16.42;11.32;;;8.60;55.10;;;;;;5053299;28;20284;-80
2022/03/26 02:49:58;;;;;;;14.40;12.25;;;8.60;55.00;;;;;;5053041;28;20252;-80
2022/03/26 02:52:27;;;;;;;14.13;12.23;;;8.50;55.10;;;;;;5052553;28;20312;-81
2022/03/26 02:54:56;;;;;;;24.15;12.48;;;8.50;54.80;;;;;;5053195;28;20282;-81
2022/03/26 02:57:25;;;;;;;18.60;12.52;;;8.50;55.20;;;;;;5053328;28;20209;-80
2022/03/26 02:59:54;;;;;;;14.07;10.55;;;8.50;55.10;;;;;;5052852;28;20202;-81
2022/03/26 03:02:22;;;;;;;14.00;11.32;;;8.50;55.10;;;;;;5052612;28;20245;-80
2022/03/26 03:04:51;;;;;;;15.48;11.68;;;8.40;55.20;;;;;;5052764;28;20215;-80
2022/03/26 03:07:19;;;;;;;15.52;12.35;;;8.40;55.90;;;;;;5052977;28;20209;-81
2022/03/26 03:09:47;;;;;;;29.17;13.73;;;8.40;55.30;;;;;;5053052;28;20397;-81
2022/03/26 03:12:17;;;;;;;14.85;11.85;;;8.40;55.60;;;;;;5052567;28;20256;-80
2022/03/26 03:14:45;;;;;;;17.73;13.27;;;8.30;55.50;;;;;;5052703;28;20309;-79
2022/03/26 03:17:13;;;;;;;17.50;12.65;;;8.30;55.20;;;;;;5052714;28;20255;-81
2022/03/26 03:19:42;;;;;;;20.85;13.02;;;8.20;55.10;;;;;;5052832;28;20240;-80
2022/03/26 03:22:10;;;;;;;12.45;11.15;;;8.20;55.20;;;;;;5052818;28;20316;-81
2022/03/26 03:24:39;;;;;;;18.05;11.18;;;8.20;55.40;;;;;;5052510;28;20259;-81
2022/03/26 03:27:07;;;;;;;16.83;11.13;;;8.20;55.40;;;;;;5052472;28;20301;-80
2022/03/26 03:29:37;;;;;;;16.65;12.45;;;8.10;55.30;;;;;;5052444;28;20229;-80
2022/03/26 03:32:06;;;;;;;16.17;12.13;;;8.10;55.50;;;;;;5052031;28;20293;-80
2022/03/26 03:34:34;;;;;;;15.50;12.30;;;8.10;55.70;;;;;;5052764;28;20228;-80
2022/03/26 03:37:03;;;;;;;24.02;12.27;;;8.00;55.90;;;;;;5052707;28;20206;-80
2022/03/26 03:39:31;;;;;;;24.58;12.35;;;8.00;56.60;;;;;;5052258;28;20241;-81
2022/03/26 03:41:59;;;;;;;15.85;12.63;;;8.00;56.70;;;;;;5052035;28;20241;-79
2022/03/26 03:44:28;;;;;;;14.60;11.88;;;7.90;57.10;;;;;;5052314;28;20261;-80
2022/03/26 03:46:58;;;;;;;15.05;12.07;;;7.90;57.10;;;;;;5052379;28;20236;-79
2022/03/26 03:49:30;;;;;;;23.48;12.30;;;7.90;57.50;;;;;;5052472;28;20205;-80
2022/03/26 03:51:58;;;;;;;19.13;12.50;;;7.90;57.10;;;;;;5052013;28;20260;-79
2022/03/26 03:54:26;;;;;;;13.00;10.98;;;7.90;57.50;;;;;;5052620;28;20279;-80
2022/03/26 03:56:55;;;;;;;16.02;10.57;;;7.80;57.00;;;;;;5052327;28;20206;-79
2022/03/26 03:59:24;;;;;;;13.55;11.00;;;7.80;57.00;;;;;;5051891;28;20265;-80
2022/03/26 04:01:52;;;;;;;27.58;12.77;;;7.80;57.10;;;;;;5051647;28;20309;-79
2022/03/26 04:04:22;;;;;;;14.93;11.52;;;7.80;57.30;;;;;;5052302;28;20284;-79
2022/03/26 04:06:50;;;;;;;17.83;12.70;;;7.70;57.40;;;;;;5052029;28;20240;-79
2022/03/26 04:09:19;;;;;;;15.15;12.15;;;7.70;57.40;;;;;;5052130;28;20229;-79
2022/03/26 04:11:47;;;;;;;28.75;12.52;;;7.60;58.10;;;;;;5052223;28;20256;-79
2022/03/26 04:14:15;;;;;;;20.35;12.15;;;7.60;58.40;;;;;;5052330;28;20206;-80
2022/03/26 04:16:44;;;;;;;13.18;11.77;;;7.50;58.30;;;;;;5051782;28;20308;-79
2022/03/26 04:19:12;;;;;;;17.23;12.98;;;7.50;58.50;;;;;;5051974;28;20220;-80
2022/03/26 04:21:42;;;;;;;14.15;11.43;;;7.40;58.20;;;;;;5051720;28;20351;-80
2022/03/26 04:24:11;;;;;;;14.07;11.98;;;7.50;58.10;;;;;;5051905;28;20243;-79
2022/03/26 04:26:39;;;;;;;19.23;12.43;;;7.50;60.70;;;;;;5051750;28;20233;-83
2022/03/26 04:29:08;;;;;;;20.60;12.32;;;7.50;58.00;;;;;;5051747;28;20234;-82
2022/03/26 04:31:36;;;;;;;15.93;12.48;;;7.50;58.70;;;;;;5051810;28;20253;-82
2022/03/26 04:34:04;;;;;;;22.40;13.60;;;7.50;58.30;;;;;;5052042;28;20209;-79
2022/03/26 04:36:33;;;;;;;16.83;12.57;;;7.50;57.70;;;;;;5051470;28;20275;-80
2022/03/26 04:39:03;;;;;;;13.07;11.05;;;7.50;57.80;;;;;;5052122;28;20282;-82
2022/03/26 04:41:31;;;;;;;14.20;11.57;;;7.50;58.50;;;;;;5051723;28;20257;-82
2022/03/26 04:43:59;;;;;;;13.90;11.68;;;7.40;58.10;;;;;;5051915;28;20229;-82
2022/03/26 04:46:28;;;;;;;13.55;10.68;;;7.40;58.20;;;;;;5052013;28;20269;-82
2022/03/26 04:48:56;;;;;;;14.95;12.65;;;7.40;58.30;;;;;;5052024;28;20229;-83
2022/03/26 04:51:25;;;;;;;15.88;12.70;;;7.40;58.60;;;;;;5051699;28;20253;-82
2022/03/26 04:53:53;;;;;;;16.85;11.48;;;7.30;58.50;;;;;;5051656;28;20301;-82
2022/03/26 04:56:23;;;;;;;18.20;12.55;;;7.30;58.70;;;;;;5051305;28;20313;-82
2022/03/26 04:58:53;;;;;;;17.52;12.35;;;7.20;58.90;;;;;;5051878;28;20289;-82
2022/03/26 05:01:22;;;;;;;21.83;12.63;;;7.20;58.90;;;;;;5053626;28;20264;-82
2022/03/26 05:03:51;;;;;;;21.10;12.20;;;7.20;59.00;;;;;;5055448;28;20207;-83
2022/03/26 05:06:19;;;;;;;18.98;12.18;;;7.20;59.20;;;;;;5055628;28;20210;-82
2022/03/26 05:08:48;;;;;;;19.63;13.20;;;7.20;59.20;;;;;;5054995;28;20297;-83
2022/03/26 05:11:19;;;;;;;13.13;11.73;;;7.20;59.10;;;;;;5054891;28;20256;-82
2022/03/26 05:13:49;;;;;;;17.27;13.38;;;7.20;59.20;;;;;;5055282;28;20213;-82
2022/03/26 05:16:17;;;;;;;14.38;11.65;;;7.20;59.70;;;;;;5054683;28;20260;-82
2022/03/26 05:18:45;;;;;;;14.80;11.35;;;7.30;60.20;;;;;;5054950;28;20208;-82
2022/03/26 05:21:14;;;;;;;22.40;12.48;;;7.30;60.70;;;;;;5054541;28;20225;-82
2022/03/26 05:23:42;;;;;;;13.85;11.55;;;7.30;60.80;;;;;;5054647;28;20202;-82
2022/03/26 05:26:11;;;;;;;16.50;11.52;;;7.30;60.70;;;;;;5054807;28;20202;-82
2022/03/26 05:28:39;;;;;;;12.27;10.95;;;7.30;61.10;;;;;;5054471;28;20327;-82
2022/03/26 05:31:09;;;;;;;16.98;12.52;;;7.30;61.20;;;;;;5054278;28;20314;-83
2022/03/26 05:33:37;;;;;;;16.27;12.18;;;7.30;60.70;;;;;;5054746;28;20206;-82
2022/03/26 05:36:06;;;;;;;14.73;11.27;;;7.40;60.50;;;;;;5054320;28;20245;-82
2022/03/26 05:38:34;;;;;;;14.80;12.13;;;7.40;61.00;;;;;;5054404;28;20233;-82
2022/03/26 05:41:03;;;;;;;13.98;12.00;;;7.50;61.00;;;;;;5054341;28;20262;-82
2022/03/26 05:43:31;;;;;;;12.38;10.45;;;7.50;60.50;;;;;;5054686;28;20273;-82
2022/03/26 05:46:00;;;;;;;14.93;11.90;;;7.50;60.50;;;;;;5054788;28;20229;-82
2022/03/26 05:48:30;;;;;;;12.90;10.60;;;7.60;60.40;;;;;;5054444;28;20211;-81
2022/03/26 05:50:58;;;;;;;16.77;12.43;;;7.60;60.50;;;;;;5053885;28;20234;-81
2022/03/26 05:53:26;;;;;;;16.58;12.57;;;7.70;60.40;;;;;;5054455;28;20278;-82
2022/03/26 05:55:54;;;;;;;13.43;11.30;;;7.70;59.90;;;;;;5054536;28;20253;-81
2022/03/26 05:58:23;;;;;;;14.80;12.32;;;7.80;60.70;;;;;;5054442;28;20293;-80
2022/03/26 06:00:51;;;;;;;12.23;10.57;;;7.80;60.70;;;;;;5054030;28;20293;-80
2022/03/26 06:03:20;;;;;;;17.02;12.43;;;7.90;60.60;;;;;;5053950;28;20240;-79
2022/03/26 06:05:49;;;;;;;18.38;11.40;;;7.90;60.50;;;;;;5054080;28;20209;-79
2022/03/26 06:08:18;;;;;;;15.57;12.57;;;7.90;60.60;;;;;;5053838;28;20205;-79
2022/03/26 06:10:46;;;;;;;15.82;12.02;;;8.00;61.20;;;;;;5053652;28;20230;-80
2022/03/26 06:13:14;;;;;;;14.10;12.23;;;8.00;60.40;;;;;;5053090;28;20252;-80
2022/03/26 06:15:42;;;;;;;20.35;12.98;;;8.10;60.50;;;;;;5053721;28;20278;-82
2022/03/26 06:18:12;;;;;;;19.02;12.43;;;8.20;59.80;;;;;;5053960;28;20216;-80
2022/03/26 06:20:42;;;;;;;16.50;13.02;;;8.30;59.30;;;;;;5053309;28;20206;-80
2022/03/26 06:23:12;;;;;;;15.90;12.27;;;8.30;59.00;;;;;;5054101;28;20205;-80
2022/03/26 06:25:40;;;;;;;15.60;12.68;;;8.30;59.40;;;;;;5053961;28;20240;-80
2022/03/26 06:28:09;;;;;;;16.13;12.68;;;8.40;58.90;;;;;;5053601;28;20222;-79
2022/03/26 06:30:37;;;;;;;15.07;12.43;;;8.40;58.80;;;;;;5053481;28;20210;-80
2022/03/26 06:33:06;;;;;;;17.17;13.57;;;8.50;59.20;;;;;;5053204;28;20213;-80
2022/03/26 06:35:34;;;;;;;25.67;13.18;;;8.50;58.40;;;;;;5053768;28;20283;-79
2022/03/26 06:38:02;;;;;;;31.95;12.65;;;8.60;59.40;;;;;;5053413;28;20272;-79
2022/03/26 06:40:32;;;;;;;17.15;12.05;;;8.60;59.00;;;;;;5053706;28;20304;-80
2022/03/26 06:43:00;;;;;;;13.43;12.00;;;8.70;59.70;;;;;;5053015;28;20264;-80
2022/03/26 06:45:28;;;;;;;19.38;12.15;;;8.80;58.40;;;;;;5053333;28;20228;-80
2022/03/26 06:47:57;;;;;;;16.63;12.98;;;8.80;58.50;;;;;;5053565;28;20289;-80
2022/03/26 06:50:26;;;;;;;16.75;13.00;;;8.80;59.60;;;;;;5052901;28;20229;-79
2022/03/26 06:52:55;;;;;;;17.00;13.98;;;8.90;58.20;;;;;;5053116;28;20254;-80
2022/03/26 06:55:24;;;;;;;22.33;12.68;;;9.00;57.60;;;;;;5053063;28;20267;-79
2022/03/26 06:57:54;;;;;;;20.65;13.40;;;9.10;58.20;;;;;;5052781;28;20272;-79
2022/03/26 07:00:22;;;;;;;18.05;12.80;;;9.20;57.20;;;;;;5052707;28;20217;-79
2022/03/26 07:02:50;;;;;;;13.50;12.07;;;9.30;57.00;;;;;;5052921;28;20312;-79
2022/03/26 07:05:19;;;;;;;19.20;13.05;;;9.40;56.80;;;;;;5053343;28;20285;-79
2022/03/26 07:07:47;;;;;;;16.73;13.40;;;9.50;56.90;;;;;;5052765;28;20229;-79
2022/03/26 07:10:16;;;;;;;19.33;13.68;;;9.60;56.60;;;;;;5053041;28;20252;-79
2022/03/26 07:12:45;;;;;;;16.83;12.98;;;9.70;56.80;;;;;;5052665;28;20226;-79
2022/03/26 07:15:15;;;;;;;15.50;13.15;;;9.80;56.20;;;;;;5052549;28;20260;-82
2022/03/26 07:17:43;;;;;;;16.25;13.65;;;9.90;56.00;;;;;;5052714;28;20248;-83
2022/03/26 07:20:14;;;;;;;16.27;14.00;;;10.00;54.60;;;;;;5052852;28;20229;-81
2022/03/26 07:22:43;;;;;;;17.25;13.25;;;10.10;54.30;;;;;;5052440;28;20232;-81
2022/03/26 07:25:12;;;;;;;18.83;13.30;;;10.20;53.90;;;;;;5052425;28;20252;-82
2022/03/26 07:27:40;;;;;;;15.15;12.65;;;10.30;54.00;;;;;;5052794;28;20230;-81
2022/03/26 07:30:10;;;;;;;22.02;14.45;;;10.30;53.90;;;;;;5052713;28;20202;-82
2022/03/26 07:32:40;;;;;;;18.73;13.70;;;10.40;54.10;;;;;;5052447;28;20320;-81
2022/03/26 07:35:09;;;;;;;16.50;13.52;;;10.50;54.30;;;;;;5052442;28;20232;-82
2022/03/26 07:37:37;;;;;;;19.08;14.27;;;10.50;53.70;;;;;;5052327;28;20309;-81
2022/03/26 07:40:07;;;;;;;17.13;14.23;;;10.60;53.90;;;;;;5051849;28;20241;-82
2022/03/26 07:42:36;;;;;;;19.10;13.73;;;10.60;53.70;;;;;;5052299;28;20241;-81
2022/03/26 07:45:04;;;;;;;15.88;13.30;;;10.70;53.70;;;;;;5052476;28;20301;-82
2022/03/26 07:47:36;;;;;;;16.80;13.27;;;10.80;53.40;;;;;;5052052;28;20225;-82
2022/03/26 07:50:07;;;;;;;14.48;12.95;;;10.90;54.20;;;;;;5051968;28;20233;-82
2022/03/26 07:52:36;;;;;;;15.82;13.25;;;11.00;53.30;;;;;;5052388;28;20225;-82
2022/03/26 07:55:05;;;;;;;17.20;13.88;;;11.10;53.10;;;;;;5052280;28;20292;-82
2022/03/26 07:57:34;;;;;;;19.27;13.70;;;11.10;52.80;;;;;;5052344;28;20229;-82
2022/03/26 08:00:02;;;;;;;23.55;15.50;;;11.30;54.10;;;;;;5052285;28;20297;-82
2022/03/26 08:02:30;;;;;;;22.13;15.27;;;11.40;52.50;;;;;;5052050;28;20310;-81
2022/03/26 08:04:59;;;;;;;21.25;14.90;;;11.50;52.60;;;;;;5052085;28;20233;-81
2022/03/26 08:07:29;;;;;;;20.73;13.57;;;11.70;52.30;;;;;;5052200;28;20381;-82
2022/03/26 08:09:57;;;;;;;16.10;12.55;;;11.80;52.00;;;;;;5052363;28;20262;-81
2022/03/26 08:12:25;;;;;;;19.52;14.23;;;11.90;51.60;;;;;;5052106;28;20225;-82
2022/03/26 08:14:53;;;;;;;18.58;13.02;;;12.10;51.10;;;;;;5052124;28;20244;-82
2022/03/26 08:17:22;;;;;;;27.58;14.23;;;12.20;50.90;;;;;;5051877;28;20272;-80
2022/03/26 08:19:51;;;;;;;25.27;14.70;;;12.40;50.30;;;;;;5052153;28;20263;-82
2022/03/26 08:22:19;;;;;;;19.77;14.35;;;12.60;50.20;;;;;;5052019;28;20234;-81
2022/03/26 08:24:49;;;;;;;19.38;13.27;;;12.80;50.30;;;;;;5052229;28;20216;-81
2022/03/26 08:27:17;;;;;;;18.10;13.23;;;13.00;49.50;;;;;;5052217;28;20232;-81
2022/03/26 08:29:46;;;;;;;16.15;14.45;;;13.20;50.90;;;;;;5051692;28;20264;-81
2022/03/26 08:32:15;;;;;;;17.65;13.90;;;13.60;49.40;;;;;;5051619;28;20261;-81
2022/03/26 08:34:44;;;;;;;18.65;12.50;;;14.00;49.70;;;;;;5052085;28;20239;-81
2022/03/26 08:37:12;;;;;;;22.67;13.55;;;14.40;49.30;;;;;;5056071;28;22128;-81
2022/03/26 08:39:41;;;;;;;17.25;12.52;;;14.90;48.60;;;;;;5055738;28;20248;-82
2022/03/26 08:42:10;;;;;;;22.17;14.73;;;15.40;47.10;;;;;;5055102;28;20245;-82
2022/03/26 08:44:39;;;;;;;18.80;14.45;;;16.20;47.00;;;;;;5055581;28;20239;-82
2022/03/26 08:47:07;;;;;;;15.80;14.10;;;17.30;45.60;;;;;;5055495;28;20337;-79
2022/03/26 08:49:36;;;;;;;17.10;15.13;;;18.30;44.60;;;;;;5055654;28;20294;-79
2022/03/26 08:52:05;;;;;;;15.82;13.90;;;20.30;42.70;;;;;;5055096;28;20238;-79
2022/03/26 08:54:33;;;;;;;18.17;15.77;;;21.70;40.30;;;;;;5055561;28;20236;-79
2022/03/26 08:57:02;;;;;;;20.73;16.15;;;23.40;40.50;;;;;;5055328;28;20197;-78
2022/03/26 08:59:32;;;;;;;20.77;14.85;;;24.80;39.30;;;;;;5055547;28;20236;-79
2022/03/26 09:02:00;;;;;;;30.20;16.48;;;25.30;36.20;;;;;;5055433;28;20317;-79
2022/03/26 09:04:29;;;;;;;18.27;15.90;;;25.20;35.20;;;;;;5055485;28;20208;-78
2022/03/26 09:06:57;;;;;;;16.75;15.00;;;25.60;36.20;;;;;;5055275;28;20213;-80
2022/03/26 09:09:25;;;;;;;17.15;15.35;;;25.60;35.50;;;;;;5054934;28;20277;-80
2022/03/26 09:11:53;;;;;;;16.58;14.98;;;25.60;35.30;;;;;;5054748;28;20313;-80
2022/03/26 09:14:22;;;;;;;16.23;14.57;;;25.60;35.00;;;;;;5055130;28;20210;-79
2022/03/26 09:16:51;;;;;;;17.35;15.55;;;25.50;35.00;;;;;;5054827;28;20265;-79
2022/03/26 09:19:20;;;;;;;16.17;14.60;;;25.90;34.50;;;;;;5054867;28;20286;-80
2022/03/26 09:21:49;;;;;;;28.27;18.20;;;26.20;35.50;;;;;;5054713;28;20252;-81
2022/03/26 09:24:18;;;;;;;21.70;16.55;;;26.40;35.40;;;;;;5055239;28;20202;-80
2022/03/26 09:26:46;;;;;;;17.38;13.70;;;26.90;32.60;;;;;;5055234;28;20236;-75
2022/03/26 09:29:15;;;;;;;15.88;14.23;;;27.40;34.70;;;;;;5039114;28;20229;-76
2022/03/26 09:31:44;;;;;;;23.05;15.40;;;27.40;33.50;;;;;;5046237;28;20218;-79
2022/03/26 09:34:14;;;;;;;19.90;15.25;;;27.50;33.00;;;;;;5041265;28;20198;-76
2022/03/26 09:36:42;;;;;;;17.25;15.60;;;27.00;31.50;;;;;;5055665;28;20289;-80
2022/03/26 09:39:10;;;;;;;17.38;15.65;;;26.80;33.70;;;;;;5039254;28;20310;-79
2022/03/26 09:41:40;;;;;;;20.98;14.30;;;26.90;35.00;;;;;;5040972;28;20296;-76
2022/03/26 09:44:08;;;;;;;88.28;51.28;;;27.00;36.00;;;;;;5055505;28;20280;-80
2022/03/26 09:46:36;;;;;;;36.00;32.10;;;27.40;34.50;;;;;;5038918;28;20284;-82
2022/03/26 09:49:05;;;;;;;25.02;19.20;;;27.60;33.70;;;;;;5041721;28;20244;-81
2022/03/26 09:53:06;;;;;;;20.08;17.48;;;27.60;31.80;;;;;;5111444;27;20582;-82
2022/03/26 09:56:11;;;;;;;23.27;18.50;;;28.30;33.30;;;;;;5122162;28;20193;-78
2022/03/26 09:58:42;;;;;;;19.30;16.70;;;28.30;32.70;;;;;;5130944;27;20223;-77
2022/03/26 10:01:10;;;;;;;20.73;18.48;;;28.40;31.30;;;;;;5123366;27;20287;-80
2022/03/26 10:03:40;;;;;;;22.23;19.50;;;28.50;31.00;;;;;;5131622;27;20207;-81
2022/03/26 10:06:14;;;;;;;23.02;18.95;;;27.90;31.00;;;;;;5118340;27;20192;-76
2022/03/26 10:08:43;;;;;;;18.75;16.88;;;27.50;30.70;;;;;;5117617;27;20335;-79
2022/03/26 10:11:21;;;;;;;21.60;19.38;;;27.30;31.90;;;;;;5130919;27;20282;-76
2022/03/26 10:13:52;;;;;;;21.10;17.00;;;26.90;32.00;;;;;;5131103;27;20202;-85
2022/03/26 10:16:51;;;;;;;21.42;17.67;;;26.60;32.70;;;;;;5125154;27;20214;-80
2022/03/26 10:19:22;;;;;;;27.67;23.35;;;26.50;33.00;;;;;;5111189;28;20223;-82
2022/03/26 10:21:51;;;;;;;27.70;19.38;;;26.30;34.50;;;;;;5110729;27;20303;-78
2022/03/26 10:26:10;;;;;;;16.77;14.95;;;25.70;32.70;;;;;;5152280;27;20715;-80
2022/03/26 10:28:40;;;;;;;28.25;14.65;;;25.50;34.70;;;;;;5138109;27;20224;-85
2022/03/26 10:34:06;;;;;;;24.42;14.93;;;25.30;34.10;;;;;;5126705;27;20215;-74
2022/03/26 10:36:40;;;;;;;20.40;13.63;;;25.50;34.60;;;;;;5131426;27;20220;-74
2022/03/26 10:39:15;;;;;;;18.13;13.63;;;25.70;34.30;;;;;;5131563;27;20223;-76
2022/03/26 10:41:45;;;;;;;30.58;14.68;;;26.00;34.50;;;;;;5121455;27;20267;-79
2022/03/26 10:44:14;;;;;;;16.17;13.70;;;26.20;33.20;;;;;;5131765;27;20246;-77
2022/03/26 10:46:48;;;;;;;24.02;15.38;;;26.30;34.00;;;;;;5131674;27;20226;-80
2022/03/26 10:49:27;;;;;;;16.02;14.50;;;26.50;33.60;;;;;;5137454;27;20206;-83
2022/03/26 10:51:56;;;;;;;19.85;16.33;;;26.70;33.30;;;;;;5151687;27;20260;-83
2022/03/26 10:54:31;;;;;;;17.15;14.63;;;26.60;33.20;;;;;;5151952;27;20253;-82
2022/03/26 10:57:02;;;;;;;16.77;15.02;;;27.10;32.70;;;;;;5151933;27;20222;-81
2022/03/26 10:59:31;;;;;;;26.15;13.85;;;27.00;32.60;;;;;;5151636;27;20245;-82
2022/03/26 11:02:00;;;;;;;15.60;14.10;;;26.90;33.40;;;;;;5151960;27;20305;-85
2022/03/26 11:04:29;;;;;;;21.40;15.82;;;26.90;33.10;;;;;;5151961;27;20202;-83
2022/03/26 11:06:57;;;;;;;16.77;14.95;;;27.40;32.70;;;;;;5151736;27;20202;-80
2022/03/26 11:09:27;;;;;;;15.10;13.65;;;27.20;31.50;;;;;;5151568;27;20294;-83
2022/03/26 11:11:58;;;;;;;18.83;15.75;;;27.00;32.00;;;;;;5132325;27;20287;-83
2022/03/26 11:14:33;;;;;;;16.48;14.77;;;27.00;32.20;;;;;;5112205;27;20212;-83
2022/03/26 11:17:17;;;;;;;16.98;15.27;;;27.60;31.30;;;;;;5119045;28;20282;-84
2022/03/26 11:20:02;;;;;;;15.60;13.93;;;27.20;31.80;;;;;;5130398;27;20258;-83
2022/03/26 11:22:37;;;;;;;15.98;14.40;;;27.30;32.10;;;;;;5130450;28;20306;-85
2022/03/26 11:25:38;;;;;;;14.82;13.30;;;27.60;31.20;;;;;;5129360;28;20217;-84
2022/03/26 11:28:23;;;;;;;14.50;13.07;;;27.70;29.70;;;;;;5081644;28;20222;-83
2022/03/26 11:30:57;;;;;;;16.17;14.18;;;27.40;29.40;;;;;;5130555;27;20237;-83
2022/03/26 11:33:33;;;;;;;15.80;14.05;;;26.80;29.30;;;;;;5130902;27;20206;-84
2022/03/26 11:36:04;;;;;;;16.15;13.88;;;26.50;30.60;;;;;;5123094;27;20290;-84
2022/03/26 11:38:34;;;;;;;25.15;14.98;;;25.90;29.80;;;;;;5116492;27;20214;-84
2022/03/26 11:41:05;;;;;;;16.23;13.95;;;26.20;30.00;;;;;;5115323;28;20248;-83
2022/03/26 11:43:58;;;;;;;14.98;13.00;;;26.30;29.80;;;;;;5115729;28;20234;-83
2022/03/26 11:52:23;;;;;;;13.98;12.48;;;26.00;30.50;;;;;;5114976;28;20252;-83
2022/03/26 11:54:56;;;;;;;16.58;13.32;;;26.10;30.60;;;;;;5115406;28;20216;-83
2022/03/26 11:57:26;;;;;;;16.92;13.25;;;25.90;30.30;;;;;;5115660;28;20250;-82
2022/03/26 11:59:55;;;;;;;19.33;15.30;;;26.10;29.90;;;;;;5115180;28;20290;-83
2022/03/26 12:02:27;;;;;;;15.32;13.68;;;25.80;29.50;;;;;;5114842;28;20269;-83
2022/03/26 12:04:57;;;;;;;21.00;14.13;;;26.00;30.40;;;;;;5115157;28;20210;-83
2022/03/26 12:07:29;;;;;;;15.57;13.98;;;26.20;29.30;;;;;;5115549;28;20203;-83
2022/03/26 12:10:06;;;;;;;15.45;13.88;;;26.20;29.30;;;;;;5115468;28;20228;-84
2022/03/26 12:12:51;;;;;;;18.98;14.30;;;26.20;30.00;;;;;;5115030;28;20231;-83
2022/03/26 12:15:36;;;;;;;14.90;12.55;;;26.10;29.90;;;;;;5114654;28;20247;-83
2022/03/26 12:18:10;;;;;;;13.77;12.45;;;26.00;29.60;;;;;;5114955;28;20203;-83
2022/03/26 12:20:40;;;;;;;18.02;14.13;;;26.10;29.50;;;;;;5114851;28;20290;-83
2022/03/26 12:23:12;;;;;;;18.02;13.27;;;26.20;29.70;;;;;;5115379;28;20255;-83
2022/03/26 12:25:47;;;;;;;14.05;11.70;;;25.80;28.80;;;;;;5114730;28;20216;-84
2022/03/26 12:28:17;;;;;;;14.52;12.52;;;26.20;28.80;;;;;;5114552;28;20207;-83
2022/03/26 12:30:48;;;;;;;27.42;13.90;;;26.20;30.70;;;;;;5114338;28;20230;-83
2022/03/26 12:33:18;;;;;;;14.10;12.73;;;25.80;28.40;;;;;;5114646;28;20287;-84
2022/03/26 12:35:48;;;;;;;12.73;11.13;;;25.60;28.20;;;;;;5114702;28;20243;-83
2022/03/26 12:38:18;;;;;;;12.50;11.27;;;25.40;28.10;;;;;;5114566;28;20291;-83
2022/03/26 12:40:51;;;;;;;14.48;11.32;;;24.70;27.70;;;;;;5114128;28;20286;-84
2022/03/26 12:43:20;;;;;;;13.30;11.90;;;24.60;28.60;;;;;;5114472;28;20243;-84
2022/03/26 12:45:49;;;;;;;15.70;12.00;;;24.50;28.80;;;;;;5114395;28;20233;-83
2022/03/26 12:48:22;;;;;;;12.27;11.02;;;24.80;29.70;;;;;;5113566;28;20208;-84
2022/03/26 12:50:51;;;;;;;14.02;12.07;;;24.80;28.70;;;;;;5113690;27;20304;-84
2022/03/26 12:53:21;;;;;;;14.52;12.75;;;24.80;28.90;;;;;;5114050;28;20211;-84
2022/03/26 12:55:57;;;;;;;12.88;11.68;;;24.70;29.30;;;;;;5114016;28;20251;-84
2022/03/26 13:01:14;;;;;;;12.68;11.15;;;25.20;29.50;;;;;;5113706;28;20254;-84